Terminal Aerodrome Forecast
Issued by NWS Jackson, KY

Home | Current Version | Previous Version | Text Only | Print | Product List | Glossary On
Versions: 1 2 3 4 5 6 7 8 9 10 11 12 13 14 15 16
000
FTUS43 KJKL 211500 AAA
TAFLOZ
TAF AMD
KLOZ 211539Z 2116/2212 24006KT P6SM VCSH BKN025 OVC035
     FM211700 26011G22KT P6SM VCSH BKN025 BKN035
     FM212300 29006KT P6SM FEW015 SCT030 SCT250
     FM220800 31003KT P6SM OVC015=

USA.gov is the U.S. government's official web portal to all federal, state and local government web resources and services.